createdAt,value
2019-04-29T00:01:13.592Z,2.70
2019-04-29T00:03:17.067Z,0.87
2019-04-29T00:05:20.569Z,1.50
2019-04-29T00:07:23.935Z,1.73
2019-04-29T00:09:26.630Z,0.80
2019-04-29T00:11:29.262Z,0.70
2019-04-29T00:13:31.851Z,1.17
2019-04-29T00:15:51.164Z,1.20
2019-04-29T00:17:54.569Z,1.02
2019-04-29T00:20:13.871Z,3.72
2019-04-29T00:22:16.587Z,0.80
2019-04-29T00:24:19.186Z,1.23
2019-04-29T00:26:22.540Z,1.63
2019-04-29T00:28:25.154Z,1.27
2019-04-29T00:30:27.973Z,2.15
2019-04-29T00:32:30.591Z,1.70
2019-04-29T00:34:33.213Z,2.20
2019-04-29T00:36:38.402Z,1.67
2019-04-29T00:38:42.752Z,0.80
2019-04-29T00:41:00.266Z,1.12
2019-04-29T00:43:04.372Z,0.93
2019-04-29T00:45:06.980Z,0.90
2019-04-29T00:47:09.611Z,0.85
2019-04-29T00:49:12.959Z,0.73
2019-04-29T00:51:17.063Z,1.40
2019-04-29T00:53:19.684Z,1.73
2019-04-29T00:55:24.098Z,1.10
2019-04-29T00:57:26.703Z,1.20
2019-04-29T00:59:29.315Z,1.40
2019-04-29T01:01:31.914Z,1.13
2019-04-29T01:03:34.710Z,1.23
2019-04-29T01:05:37.656Z,1.50
2019-04-29T01:07:40.259Z,2.45
2019-04-29T01:09:42.859Z,0.82
2019-04-29T01:11:45.581Z,1.20
2019-04-29T01:13:48.171Z,1.20
2019-04-29T01:15:51.543Z,1.75
2019-04-29T01:17:54.334Z,1.23
2019-04-29T01:19:57.687Z,1.40
2019-04-29T01:22:00.294Z,1.12
2019-04-29T01:24:02.935Z,1.05
2019-04-29T01:26:16.414Z,1.52
2019-04-29T01:28:18.987Z,0.90
2019-04-29T01:30:37.035Z,1.73
2019-04-29T01:32:39.642Z,1.20
2019-04-29T01:34:50.853Z,1.20
2019-04-29T01:36:53.403Z,1.07
2019-04-29T01:38:55.947Z,0.87
2019-04-29T01:41:02.687Z,1.40
2019-04-29T01:43:06.165Z,0.85
2019-04-29T01:45:08.708Z,1.95
2019-04-29T01:47:11.288Z,1.50
2019-04-29T01:49:14.055Z,0.98
2019-04-29T01:51:16.603Z,1.05
2019-04-29T01:53:19.736Z,0.85
2019-04-29T01:55:22.321Z,1.73
2019-04-29T01:57:25.639Z,3.30
2019-04-29T01:59:28.717Z,1.75
2019-04-29T02:01:32.193Z,1.20
2019-04-29T02:03:34.741Z,2.00
2019-04-29T02:05:37.558Z,0.90
2019-04-29T02:07:40.899Z,1.77
2019-04-29T02:09:43.447Z,1.20
2019-04-29T02:11:46.048Z,1.40
2019-04-29T02:13:48.944Z,0.90
2019-04-29T02:15:51.494Z,1.58
2019-04-29T02:17:54.051Z,1.35
2019-04-29T02:19:57.167Z,2.07
2019-04-29T02:22:05.363Z,1.70
2019-04-29T02:24:07.911Z,1.67
2019-04-29T02:26:11.343Z,1.92
2019-04-29T02:28:13.934Z,2.75
2019-04-29T02:30:38.192Z,3.87
2019-04-29T02:32:40.813Z,2.00
2019-04-29T02:34:44.115Z,1.42
2019-04-29T02:36:47.222Z,1.58
2019-04-29T02:38:54.821Z,2.10
2019-04-29T02:41:00.309Z,3.78
2019-04-29T02:43:03.316Z,1.70
2019-04-29T02:45:05.957Z,2.45
2019-04-29T02:47:08.617Z,1.87
2019-04-29T02:49:11.188Z,4.43
2019-04-29T02:51:13.843Z,1.73
2019-04-29T02:53:16.384Z,1.55
2019-04-29T02:55:19.081Z,1.98
2019-04-29T02:57:23.059Z,6.03
2019-04-29T02:59:32.076Z,3.00
2019-04-29T03:01:38.063Z,1.27
2019-04-29T03:03:55.584Z,5.95
2019-04-29T03:06:00.919Z,1.87
2019-04-29T03:08:03.567Z,2.12
2019-04-29T03:10:06.119Z,2.27
2019-04-29T03:12:08.670Z,3.70
2019-04-29T03:14:11.239Z,2.80
2019-04-29T03:16:14.732Z,2.00
2019-04-29T03:18:17.307Z,5.12
2019-04-29T03:20:29.765Z,2.60
2019-04-29T03:22:33.122Z,2.30
2019-04-29T03:24:35.684Z,3.58
2019-04-29T03:26:38.294Z,3.85
2019-04-29T03:28:40.870Z,2.83
2019-04-29T03:30:43.402Z,3.53
2019-04-29T03:32:46.840Z,3.53
2019-04-29T03:34:49.384Z,9.77
2019-04-29T03:36:51.953Z,3.08
2019-04-29T03:38:55.130Z,1.67
2019-04-29T03:40:58.333Z,1.92
2019-04-29T03:43:00.895Z,3.10
2019-04-29T03:45:03.440Z,2.20
2019-04-29T03:47:06.617Z,2.40
2019-04-29T03:49:09.270Z,1.50
2019-04-29T03:51:11.907Z,1.55
2019-04-29T03:53:14.467Z,2.60
2019-04-29T03:55:17.251Z,2.07
2019-04-29T03:57:20.667Z,3.05
2019-04-29T03:59:23.337Z,2.15
2019-04-29T04:01:27.394Z,1.83
2019-04-29T04:03:30.508Z,3.80
2019-04-29T04:05:51.120Z,2.70
2019-04-29T04:07:53.956Z,2.55
2019-04-29T04:09:57.975Z,2.25
2019-04-29T04:12:00.699Z,3.22
2019-04-29T04:14:03.247Z,5.10
2019-04-29T04:16:05.800Z,3.60
2019-04-29T04:18:09.050Z,6.90
2019-04-29T04:20:11.584Z,4.72
2019-04-29T04:22:14.260Z,4.70
2019-04-29T04:24:16.844Z,4.93
2019-04-29T04:26:19.428Z,3.65
2019-04-29T04:28:22.026Z,4.93
2019-04-29T04:30:26.300Z,6.72
2019-04-29T04:32:28.852Z,2.67
2019-04-29T04:34:31.413Z,5.47
2019-04-29T04:36:33.968Z,4.27
2019-04-29T04:38:37.317Z,4.15
2019-04-29T04:40:40.668Z,6.30
2019-04-29T04:42:43.279Z,3.95
2019-04-29T04:44:48.043Z,4.55
2019-04-29T04:46:51.350Z,3.22
2019-04-29T04:48:54.686Z,7.60
2019-04-29T04:50:57.649Z,5.85
2019-04-29T04:53:00.259Z,5.22
2019-04-29T04:55:02.840Z,5.60
2019-04-29T04:57:05.689Z,5.87
2019-04-29T04:59:08.227Z,6.47
2019-04-29T05:01:10.800Z,3.85
2019-04-29T05:03:13.375Z,4.15
2019-04-29T05:05:16.022Z,7.18
2019-04-29T05:07:18.848Z,4.00
2019-04-29T05:09:21.443Z,4.72
2019-04-29T05:11:24.525Z,5.20
2019-04-29T05:13:28.618Z,6.60
2019-04-29T05:15:29.827Z,6.13
2019-04-29T05:17:33.278Z,7.37
2019-04-29T05:19:35.917Z,8.73
2019-04-29T05:21:38.983Z,6.70
2019-04-29T05:23:42.335Z,7.85
2019-04-29T05:25:44.931Z,11.73
2019-04-29T05:27:48.359Z,5.45
2019-04-29T05:29:50.911Z,6.25
2019-04-29T05:31:54.247Z,4.62
2019-04-29T05:33:56.827Z,8.00
2019-04-29T05:36:03.892Z,12.00
2019-04-29T05:38:09.395Z,7.60
2019-04-29T05:40:12.716Z,10.82
2019-04-29T05:42:17.064Z,8.48
2019-04-29T05:44:36.175Z,7.00
2019-04-29T05:46:42.619Z,8.03
2019-04-29T05:48:45.199Z,6.40
2019-04-29T05:51:04.832Z,5.05
2019-04-29T05:53:11.275Z,4.07
2019-04-29T05:55:14.099Z,14.25
2019-04-29T05:57:20.358Z,6.12
2019-04-29T05:59:19.403Z,7.32
2019-04-29T06:01:21.978Z,5.60
2019-04-29T06:03:24.576Z,7.43
2019-04-29T06:05:27.128Z,4.47
2019-04-29T06:07:30.535Z,5.45
2019-04-29T06:09:33.983Z,7.97
2019-04-29T06:11:36.548Z,5.72
2019-04-29T06:13:39.865Z,8.05
2019-04-29T06:15:43.429Z,4.80
2019-04-29T06:17:46.538Z,6.22
2019-04-29T06:19:50.313Z,7.37
2019-04-29T06:21:53.093Z,13.80
2019-04-29T06:23:59.277Z,6.25
2019-04-29T06:25:58.203Z,6.72
2019-04-29T06:28:00.885Z,9.95
2019-04-29T06:30:04.964Z,8.02
2019-04-29T06:32:06.059Z,7.15
2019-04-29T06:34:08.583Z,6.32
2019-04-29T06:36:11.199Z,5.57
2019-04-29T06:38:14.896Z,5.18
2019-04-29T06:40:17.469Z,8.90
2019-04-29T06:42:20.473Z,5.85
2019-04-29T06:44:22.903Z,7.43
2019-04-29T06:46:25.589Z,7.72
2019-04-29T06:48:28.144Z,5.62
2019-04-29T06:50:30.729Z,8.93
2019-04-29T06:52:33.407Z,7.05
2019-04-29T06:54:35.983Z,7.73
2019-04-29T06:56:38.547Z,5.37
2019-04-29T06:58:41.955Z,12.75
2019-04-29T07:00:45.649Z,10.20
2019-04-29T07:02:49.835Z,9.20
2019-04-29T07:04:50.884Z,7.67
2019-04-29T07:06:57.611Z,6.30
2019-04-29T07:08:56.559Z,8.90
2019-04-29T07:11:01.075Z,5.47
2019-04-29T07:13:01.911Z,6.70
2019-04-29T07:15:07.680Z,6.90
2019-04-29T07:17:07.295Z,7.60
2019-04-29T07:19:09.835Z,7.80
2019-04-29T07:21:13.209Z,6.50
2019-04-29T07:23:15.825Z,4.77
2019-04-29T07:25:18.355Z,6.33
2019-04-29T07:27:20.972Z,5.90
2019-04-29T07:29:29.564Z,6.93
2019-04-29T07:31:32.625Z,5.87
2019-04-29T07:33:28.750Z,5.83
2019-04-29T07:35:31.436Z,3.80
2019-04-29T07:37:35.565Z,11.73
2019-04-29T07:39:36.579Z,4.27
2019-04-29T07:41:39.260Z,9.43
2019-04-29T07:43:43.142Z,8.37
2019-04-29T07:45:44.727Z,13.47
2019-04-29T07:47:56.246Z,6.27
2019-04-29T07:49:51.413Z,4.40
2019-04-29T07:51:52.126Z,5.93
2019-04-29T07:53:54.716Z,4.43
2019-04-29T07:56:01.771Z,5.80
2019-04-29T07:58:00.668Z,5.67
2019-04-29T08:00:03.258Z,8.47
2019-04-29T08:02:05.783Z,4.73
2019-04-29T08:04:09.154Z,6.73
2019-04-29T08:06:12.495Z,4.83
2019-04-29T08:08:16.790Z,6.83
2019-04-29T08:10:23.732Z,5.68
2019-04-29T08:12:21.007Z,5.80
2019-04-29T08:14:23.556Z,7.93
2019-04-29T08:16:26.867Z,4.47
2019-04-29T08:18:29.476Z,3.90
2019-04-29T08:20:35.390Z,8.33
2019-04-29T08:22:35.404Z,4.73
2019-04-29T08:24:37.993Z,6.27
2019-04-29T08:26:47.075Z,4.83
2019-04-29T08:28:43.096Z,7.57
2019-04-29T08:30:47.396Z,7.43
2019-04-29T08:32:49.042Z,4.23
2019-04-29T08:34:53.716Z,5.37
2019-04-29T08:36:54.270Z,4.07
2019-04-29T08:39:07.999Z,12.33
2019-04-29T08:40:59.523Z,3.73
2019-04-29T08:43:22.409Z,5.50
2019-04-29T08:45:34.825Z,6.90
2019-04-29T08:47:36.651Z,3.90
2019-04-29T08:49:39.217Z,6.83
2019-04-29T08:51:41.812Z,5.60
2019-04-29T08:53:45.271Z,7.90
2019-04-29T08:55:47.826Z,6.73
2019-04-29T08:57:50.885Z,6.53
2019-04-29T08:59:54.336Z,5.27
2019-04-29T09:01:57.367Z,4.70
2019-04-29T09:03:59.983Z,7.83
2019-04-29T09:06:05.371Z,4.70
2019-04-29T09:08:05.437Z,4.63
2019-04-29T09:10:08.020Z,8.60
2019-04-29T09:12:10.822Z,8.10
2019-04-29T09:14:13.354Z,5.20
2019-04-29T09:16:15.912Z,9.43
2019-04-29T09:18:18.506Z,11.17
2019-04-29T09:20:21.077Z,6.63
2019-04-29T09:22:23.622Z,8.43
2019-04-29T09:24:26.755Z,6.47
2019-04-29T09:26:31.154Z,4.70
2019-04-29T09:28:34.292Z,6.77
2019-04-29T09:30:38.811Z,5.50
2019-04-29T09:32:40.535Z,6.73
2019-04-29T09:34:43.092Z,5.70
2019-04-29T09:36:48.386Z,4.97
2019-04-29T09:38:48.879Z,2.67
2019-04-29T09:40:54.687Z,3.57
2019-04-29T09:42:57.165Z,3.33
2019-04-29T09:45:08.865Z,2.97
2019-04-29T09:47:11.394Z,3.73
2019-04-29T09:49:14.227Z,7.67
2019-04-29T09:51:18.233Z,3.07
2019-04-29T09:53:19.476Z,3.70
2019-04-29T09:55:22.028Z,5.53
2019-04-29T09:57:24.645Z,10.47
2019-04-29T09:59:28.772Z,5.33
2019-04-29T10:01:32.123Z,5.93
2019-04-29T10:03:34.679Z,3.67
2019-04-29T10:05:37.942Z,6.50
2019-04-29T10:07:40.648Z,6.50
2019-04-29T10:09:56.042Z,2.33
2019-04-29T10:11:45.811Z,7.43
2019-04-29T10:13:48.683Z,5.77
2019-04-29T10:15:55.846Z,4.43
2019-04-29T10:17:56.014Z,2.77
2019-04-29T10:19:58.911Z,6.07
2019-04-29T10:22:01.735Z,3.60
2019-04-29T10:24:04.290Z,2.93
2019-04-29T10:26:06.836Z,5.23
2019-04-29T10:28:10.285Z,2.67
2019-04-29T10:30:13.203Z,3.57
2019-04-29T10:32:17.139Z,3.80
2019-04-29T10:34:19.730Z,3.07
2019-04-29T10:36:22.312Z,6.93
2019-04-29T10:38:25.376Z,3.23
2019-04-29T10:40:33.080Z,4.37
2019-04-29T10:42:36.449Z,2.57
2019-04-29T10:44:39.765Z,4.80
2019-04-29T10:46:45.254Z,4.90
2019-04-29T10:48:59.097Z,3.03
2019-04-29T10:51:00.308Z,4.40
2019-04-29T10:53:03.091Z,4.15
2019-04-29T10:55:05.643Z,6.53
2019-04-29T10:57:10.545Z,5.47
2019-04-29T10:59:11.150Z,3.50
2019-04-29T11:01:14.972Z,2.60
2019-04-29T11:03:20.734Z,6.30
2019-04-29T11:05:25.131Z,2.50
2019-04-29T11:07:40.903Z,7.50
2019-04-29T11:09:50.829Z,5.70
2019-04-29T11:11:52.711Z,4.40
2019-04-29T11:13:57.544Z,3.73
2019-04-29T11:15:58.695Z,3.47
2019-04-29T11:18:03.517Z,6.37
2019-04-29T11:20:04.602Z,3.90
2019-04-29T11:22:07.167Z,4.27
2019-04-29T11:24:19.627Z,7.20
2019-04-29T11:26:37.326Z,2.97
2019-04-29T11:28:40.002Z,8.33
2019-04-29T11:30:42.536Z,5.30
2019-04-29T11:32:47.886Z,4.53
2019-04-29T11:34:53.422Z,3.03
2019-04-29T11:36:53.778Z,11.57
2019-04-29T11:38:56.453Z,4.93
2019-04-29T11:40:59.035Z,3.10
2019-04-29T11:43:02.705Z,2.67
2019-04-29T11:45:05.967Z,3.47
2019-04-29T11:47:08.517Z,1.93
2019-04-29T11:49:11.164Z,3.40
2019-04-29T11:51:13.795Z,3.20
2019-04-29T11:53:16.379Z,6.23
2019-04-29T11:55:20.180Z,2.83
2019-04-29T11:57:41.095Z,6.10
2019-04-29T11:59:40.657Z,2.20
2019-04-29T12:01:50.849Z,3.47
2019-04-29T12:03:56.264Z,8.47
2019-04-29T12:05:58.864Z,2.60
2019-04-29T12:08:05.150Z,7.53
2019-04-29T12:10:06.588Z,2.30
2019-04-29T12:12:07.879Z,7.80
2019-04-29T12:14:21.847Z,7.03
2019-04-29T12:16:27.274Z,1.77
2019-04-29T12:18:29.849Z,4.40
2019-04-29T12:20:45.281Z,2.00
2019-04-29T12:22:49.057Z,1.80
2019-04-29T12:24:51.311Z,2.90
2019-04-29T12:26:53.996Z,2.63
2019-04-29T12:28:56.563Z,3.30
2019-04-29T12:31:00.731Z,6.43
2019-04-29T12:33:15.007Z,4.37
2019-04-29T12:35:21.607Z,4.50
2019-04-29T12:37:29.820Z,4.50
2019-04-29T12:39:43.597Z,6.63
2019-04-29T12:41:48.689Z,1.90
2019-04-29T12:43:54.121Z,4.83
2019-04-29T12:45:55.240Z,3.30
2019-04-29T12:47:57.786Z,1.93
2019-04-29T12:50:00.379Z,5.97
2019-04-29T12:52:03.215Z,2.60
2019-04-29T12:54:06.548Z,1.30
2019-04-29T12:56:11.424Z,1.70
2019-04-29T12:58:11.795Z,6.37
2019-04-29T13:00:24.258Z,3.60
2019-04-29T13:02:45.340Z,2.07
2019-04-29T13:04:52.713Z,3.10
2019-04-29T13:06:56.102Z,4.00
2019-04-29T13:09:17.578Z,2.80
2019-04-29T13:11:14.732Z,3.50
2019-04-29T13:13:15.658Z,3.47
2019-04-29T13:15:37.873Z,2.50
2019-04-29T13:17:45.957Z,1.60
2019-04-29T13:20:00.644Z,1.73
2019-04-29T13:21:51.683Z,0.97
2019-04-29T13:24:05.344Z,3.77
2019-04-29T13:25:57.863Z,3.53
2019-04-29T13:28:04.029Z,1.20
2019-04-29T13:30:07.232Z,1.43
2019-04-29T13:32:09.163Z,3.60
2019-04-29T13:34:23.779Z,3.87
2019-04-29T13:36:14.290Z,2.40
2019-04-29T13:38:16.859Z,3.23
2019-04-29T13:40:19.511Z,2.47
2019-04-29T13:42:23.223Z,2.00
2019-04-29T13:44:25.786Z,1.67
2019-04-29T13:46:31.859Z,1.73
2019-04-29T13:48:55.476Z,3.27
2019-04-29T13:50:43.555Z,3.67
2019-04-29T13:52:46.071Z,2.40
2019-04-29T13:54:48.647Z,1.93
2019-04-29T13:56:56.099Z,3.47
2019-04-29T13:58:57.485Z,2.60
2019-04-29T14:01:00.019Z,2.37
2019-04-29T14:03:18.893Z,1.70
2019-04-29T14:05:21.439Z,2.77
2019-04-29T14:07:24.383Z,2.17
2019-04-29T14:09:27.883Z,1.10
2019-04-29T14:11:30.552Z,2.10
2019-04-29T14:13:33.191Z,1.20
2019-04-29T14:15:39.844Z,1.50
2019-04-29T14:17:38.381Z,2.53
2019-04-29T14:19:42.533Z,1.50
2019-04-29T14:21:43.765Z,1.63
2019-04-29T14:23:46.272Z,3.13
2019-04-29T14:25:48.835Z,4.10
2019-04-29T14:27:51.404Z,4.07
2019-04-29T14:29:53.955Z,1.60
2019-04-29T14:31:59.285Z,1.33
2019-04-29T14:34:02.766Z,1.07
2019-04-29T14:36:08.079Z,0.97
2019-04-29T14:38:10.630Z,1.87
2019-04-29T14:40:13.459Z,4.37
2019-04-29T14:42:21.455Z,2.30
2019-04-29T14:44:44.905Z,8.20
2019-04-29T14:46:47.439Z,2.20
2019-04-29T14:49:04.694Z,1.37
2019-04-29T14:51:03.376Z,6.27
2019-04-29T14:53:05.911Z,2.87
2019-04-29T14:55:09.311Z,7.10
2019-04-29T14:57:11.892Z,1.30
2019-04-29T14:59:14.634Z,2.63
2019-04-29T15:01:23.420Z,1.50
2019-04-29T15:03:23.900Z,1.83
2019-04-29T15:05:27.242Z,3.50
2019-04-29T15:07:30.509Z,1.33
2019-04-29T15:09:46.012Z,3.40
2019-04-29T15:11:41.067Z,1.20
2019-04-29T15:13:43.043Z,1.30
2019-04-29T15:15:46.358Z,1.97
2019-04-29T15:17:51.558Z,4.40
2019-04-29T15:19:59.163Z,2.20
2019-04-29T15:22:03.243Z,1.73
2019-04-29T15:24:06.446Z,1.73
2019-04-29T15:26:09.038Z,4.13
2019-04-29T15:28:11.582Z,3.30
2019-04-29T15:30:14.290Z,2.13
2019-04-29T15:32:17.935Z,1.73
2019-04-29T15:34:19.507Z,3.50
2019-04-29T15:36:22.279Z,3.62
2019-04-29T15:38:24.859Z,2.03
2019-04-29T15:40:28.752Z,1.93
2019-04-29T15:42:31.282Z,2.77
2019-04-29T15:44:33.821Z,3.47
2019-04-29T15:46:46.380Z,1.83
2019-04-29T15:48:38.938Z,8.60
2019-04-29T15:50:41.983Z,2.80
2019-04-29T15:52:45.839Z,1.60
2019-04-29T15:54:50.897Z,5.17
2019-04-29T15:56:51.049Z,4.07
2019-04-29T15:59:12.687Z,4.70
2019-04-29T16:01:18.238Z,3.50
2019-04-29T16:03:19.589Z,5.20
2019-04-29T16:05:23.267Z,3.43
2019-04-29T16:07:25.819Z,3.43
2019-04-29T16:09:50.618Z,4.07
2019-04-29T16:11:44.613Z,2.50
2019-04-29T16:13:48.276Z,2.47
2019-04-29T16:15:50.484Z,2.17
2019-04-29T16:17:53.195Z,2.50
2019-04-29T16:19:55.783Z,4.93
2019-04-29T16:21:58.315Z,3.17
2019-04-29T16:24:01.579Z,3.27
2019-04-29T16:26:04.130Z,5.60
2019-04-29T16:28:08.263Z,3.90
2019-04-29T16:30:10.839Z,2.83
2019-04-29T16:32:13.384Z,2.40
2019-04-29T16:34:16.719Z,3.77
2019-04-29T16:36:19.277Z,5.27
2019-04-29T16:38:21.831Z,2.90
2019-04-29T16:40:25.167Z,3.33
2019-04-29T16:42:44.563Z,3.77
2019-04-29T16:44:48.669Z,4.40
2019-04-29T16:46:51.224Z,2.70
2019-04-29T16:48:53.772Z,4.67
2019-04-29T16:50:56.395Z,7.43
2019-04-29T16:52:58.964Z,5.27
2019-04-29T16:57:04.090Z,4.97
2019-04-29T16:59:09.340Z,3.03
2019-04-29T17:01:09.314Z,5.97
2019-04-29T17:03:14.135Z,2.80
2019-04-29T17:05:16.734Z,4.10
2019-04-29T17:07:19.302Z,3.03
2019-04-29T17:09:23.096Z,5.10
2019-04-29T17:11:24.920Z,2.60
2019-04-29T17:13:28.248Z,5.87
2019-04-29T17:15:31.087Z,2.23
2019-04-29T17:17:34.435Z,3.43
2019-04-29T17:19:36.991Z,3.37
2019-04-29T17:21:39.572Z,4.80
2019-04-29T17:23:42.167Z,6.73
2019-04-29T17:25:44.724Z,2.40
2019-04-29T17:27:54.078Z,7.13
2019-04-29T17:30:07.377Z,3.10
2019-04-29T17:32:07.995Z,6.10
2019-04-29T17:34:11.855Z,3.53
2019-04-29T17:35:14.349Z,2.57
2019-04-29T17:36:14.067Z,3.60
2019-04-29T17:38:16.631Z,3.47
2019-04-29T17:40:19.510Z,4.57
2019-04-29T17:42:21.765Z,4.53
2019-04-29T17:44:24.315Z,2.90
2019-04-29T17:46:33.971Z,5.60
2019-04-29T17:48:39.065Z,3.50
2019-04-29T17:50:46.134Z,4.53
2019-04-29T17:52:45.623Z,3.23
2019-04-29T17:54:48.651Z,4.87
2019-04-29T17:57:25.435Z,7.53
2019-04-29T17:59:15.799Z,3.57
2019-04-29T18:01:26.003Z,7.00
2019-04-29T18:03:48.143Z,7.20
2019-04-29T18:05:57.639Z,5.50
2019-04-29T18:07:58.920Z,5.40
2019-04-29T18:10:07.175Z,4.30
2019-04-29T18:12:10.532Z,4.23
2019-04-29T18:14:14.670Z,6.70
2019-04-29T18:16:18.937Z,4.80
2019-04-29T18:18:20.131Z,7.73
2019-04-29T18:20:39.497Z,4.47
2019-04-29T18:22:47.837Z,4.20
2019-04-29T18:25:00.414Z,5.03
2019-04-29T18:27:04.830Z,4.50
2019-04-29T18:29:08.227Z,7.83
2019-04-29T18:31:10.735Z,5.00
2019-04-29T18:33:15.055Z,6.73
2019-04-29T18:35:17.063Z,6.80
2019-04-29T18:37:18.591Z,4.33
2019-04-29T18:39:24.970Z,7.37
2019-04-29T18:41:28.052Z,4.33
2019-04-29T18:43:26.722Z,3.40
2019-04-29T18:45:30.087Z,5.20
2019-04-29T18:47:35.179Z,4.10
2019-04-29T18:49:35.652Z,4.90
2019-04-29T18:51:38.199Z,4.10
2019-04-29T18:53:40.743Z,3.93
2019-04-29T18:55:45.050Z,4.93
2019-04-29T18:57:46.694Z,3.30
2019-04-29T18:59:49.367Z,14.73
2019-04-29T19:01:51.930Z,5.53
2019-04-29T19:03:57.963Z,5.10
2019-04-29T19:06:03.249Z,4.07
2019-04-29T19:08:12.289Z,5.07
2019-04-29T19:10:09.020Z,9.83
2019-04-29T19:12:08.387Z,6.57
2019-04-29T19:14:11.061Z,5.63
2019-04-29T19:16:13.633Z,6.27
2019-04-29T19:18:17.594Z,6.17
2019-04-29T19:20:18.835Z,7.80
2019-04-29T19:22:21.323Z,5.33
2019-04-29T19:24:24.032Z,5.87
2019-04-29T19:26:27.668Z,7.33
2019-04-29T19:28:30.640Z,4.43
2019-04-29T19:30:31.843Z,6.90
2019-04-29T19:32:36.642Z,8.13
2019-04-29T19:34:43.010Z,15.30
2019-04-29T19:36:40.691Z,7.20
2019-04-29T19:38:44.124Z,6.97
2019-04-29T19:40:45.841Z,7.13
2019-04-29T19:42:48.395Z,9.00
2019-04-29T19:44:51.021Z,6.40
2019-04-29T19:46:56.072Z,9.10
2019-04-29T19:49:00.071Z,7.57
2019-04-29T19:51:17.999Z,6.43
2019-04-29T19:53:05.029Z,10.30
2019-04-29T19:55:05.187Z,6.57
2019-04-29T19:57:07.838Z,7.20
2019-04-29T19:59:13.455Z,13.37
2019-04-29T20:01:19.340Z,9.23
2019-04-29T20:03:22.784Z,8.97
2019-04-29T20:05:23.838Z,7.70
2019-04-29T20:07:22.976Z,7.50
2019-04-29T20:09:28.727Z,7.10
2019-04-29T20:11:33.814Z,9.17
2019-04-29T20:13:34.258Z,5.83
2019-04-29T20:15:36.770Z,7.50
2019-04-29T20:17:51.909Z,6.97
2019-04-29T20:20:05.549Z,7.60
2019-04-29T20:22:09.585Z,7.37
2019-04-29T20:24:15.486Z,9.93
2019-04-29T20:26:18.344Z,11.90
2019-04-29T20:28:18.408Z,7.10
2019-04-29T20:30:20.860Z,9.50
2019-04-29T20:32:22.572Z,6.10
2019-04-29T20:34:26.087Z,11.07
2019-04-29T20:36:38.131Z,13.63
2019-04-29T20:38:29.833Z,8.43
2019-04-29T20:40:35.196Z,9.10
2019-04-29T20:42:35.657Z,6.90
2019-04-29T20:44:37.029Z,8.47
2019-04-29T20:46:45.526Z,6.10
2019-04-29T20:48:42.983Z,9.10
2019-04-29T20:50:52.683Z,11.87
2019-04-29T20:53:02.560Z,7.47
2019-04-29T20:55:05.541Z,10.00
2019-04-29T20:57:17.568Z,9.37
2019-04-29T20:59:12.607Z,9.37
2019-04-29T21:01:12.058Z,8.53
2019-04-29T21:03:14.621Z,10.03
2019-04-29T21:05:23.140Z,10.17
2019-04-29T21:07:23.848Z,7.60
2019-04-29T21:09:27.559Z,11.10
2019-04-29T21:11:30.701Z,10.77
2019-04-29T21:13:39.059Z,10.53
2019-04-29T21:15:51.799Z,8.88
2019-04-29T21:17:47.742Z,7.73
2019-04-29T21:19:50.307Z,10.30
2019-04-29T21:21:52.858Z,8.43
2019-04-29T21:23:57.068Z,7.13
2019-04-29T21:26:00.452Z,12.70
2019-04-29T21:28:02.323Z,8.23
2019-04-29T21:30:03.426Z,12.97
2019-04-29T21:32:06.055Z,12.57
2019-04-29T21:34:08.599Z,8.30
2019-04-29T21:36:11.961Z,8.67
2019-04-29T21:38:22.247Z,9.07
2019-04-29T21:40:26.548Z,13.43
2019-04-29T21:42:35.142Z,9.93
2019-04-29T21:44:30.590Z,8.80
2019-04-29T21:46:33.202Z,11.63
2019-04-29T21:48:37.429Z,9.13
2019-04-29T21:50:39.296Z,10.53
2019-04-29T21:52:44.728Z,10.03
2019-04-29T21:54:49.278Z,10.43
2019-04-29T21:56:50.047Z,10.63
2019-04-29T21:58:52.643Z,14.80
2019-04-29T22:00:58.882Z,16.90
2019-04-29T22:02:59.053Z,9.50
2019-04-29T22:05:01.152Z,10.20
2019-04-29T22:07:04.813Z,13.63
2019-04-29T22:09:06.275Z,9.53
2019-04-29T22:11:08.831Z,11.43
2019-04-29T22:13:11.444Z,10.50
2019-04-29T22:15:15.775Z,11.60
2019-04-29T22:17:16.707Z,13.90
2019-04-29T22:19:26.182Z,12.73
2019-04-29T22:21:23.406Z,16.67
2019-04-29T22:23:25.284Z,12.77
2019-04-29T22:25:27.170Z,13.57
2019-04-29T22:27:34.275Z,16.83
2019-04-29T22:29:37.490Z,16.97
2019-04-29T22:31:38.216Z,18.20
2019-04-29T22:33:38.709Z,14.87
2019-04-29T22:35:41.920Z,19.57
2019-04-29T22:37:45.452Z,13.10
2019-04-29T22:39:47.384Z,14.77
2019-04-29T22:41:52.735Z,20.13
2019-04-29T22:44:01.587Z,17.20
2019-04-29T22:46:04.787Z,18.10
2019-04-29T22:48:16.693Z,18.73
2019-04-29T22:50:09.442Z,17.90
2019-04-29T22:52:12.254Z,14.53
2019-04-29T22:54:17.639Z,16.10
2019-04-29T22:56:18.196Z,20.37
2019-04-29T22:58:22.603Z,18.53
2019-04-29T23:00:26.274Z,15.80
2019-04-29T23:02:28.539Z,18.67
2019-04-29T23:04:30.535Z,13.57
2019-04-29T23:06:35.664Z,16.53
2019-04-29T23:08:38.148Z,20.00
2019-04-29T23:10:39.459Z,18.43
2019-04-29T23:12:42.030Z,18.70
2019-04-29T23:14:45.701Z,25.23
2019-04-29T23:16:48.030Z,17.70
2019-04-29T23:18:50.615Z,21.07
2019-04-29T23:21:12.011Z,21.50
2019-04-29T23:23:33.747Z,14.37
2019-04-29T23:25:32.857Z,17.93
2019-04-29T23:27:36.208Z,21.20
2019-04-29T23:29:43.131Z,18.90
2019-04-29T23:31:41.459Z,22.40
2019-04-29T23:33:45.729Z,27.33
2019-04-29T23:35:47.453Z,21.07
2019-04-29T23:37:49.987Z,17.87
2019-04-29T23:39:53.301Z,17.87
2019-04-29T23:41:55.856Z,20.13
2019-04-29T23:43:59.866Z,16.60
2019-04-29T23:46:01.004Z,16.57
2019-04-29T23:48:05.519Z,20.77
2019-04-29T23:50:06.354Z,20.00
2019-04-29T23:52:11.676Z,22.80
2019-04-29T23:54:11.513Z,26.53
2019-04-29T23:56:15.303Z,24.23
2019-04-29T23:58:20.471Z,23.77
